Time;durP1;ratioP1;P1;durP2;ratioP2;P2;SDS_P1;SDS_P2;PMS_P1;PMS_P2;Temp;Humidity;BMP_temperature;BMP_pressure;BME280_temperature;BME280_humidity;BME280_pressure;Samples;Min_cycle;Max_cycle;Signal;HPM_P1;HPM_P2
2023/08/31 00:01:26;;;;;;;4.13;2.70;;;;;;;13.91;100.00;100757.16;5264626;28;20120;-73
2023/08/31 00:03:59;;;;;;;4.45;2.63;;;;;;;13.84;100.00;100749.88;5265627;28;20020;-77
2023/08/31 00:06:30;;;;;;;5.78;3.30;;;;;;;13.81;100.00;100747.53;5263676;28;20464;-75
2023/08/31 00:09:04;;;;;;;3.97;2.78;;;;;;;13.85;100.00;100766.50;5263201;28;20028;-77
2023/08/31 00:11:36;;;;;;;6.43;3.05;;;;;;;13.75;100.00;100758.69;5263761;28;20024;-77
2023/08/31 00:14:07;;;;;;;4.00;3.22;;;;;;;13.76;100.00;100754.25;5264820;28;20085;-75
2023/08/31 00:16:38;;;;;;;5.07;3.30;;;;;;;13.75;100.00;100756.06;5265305;28;20124;-74
2023/08/31 00:19:10;;;;;;;4.65;3.13;;;;;;;13.75;100.00;100753.44;5247400;28;20067;-75
2023/08/31 00:21:42;;;;;;;5.30;3.58;;;;;;;13.73;100.00;100760.63;5263236;28;20028;-74
2023/08/31 00:24:14;;;;;;;5.47;3.85;;;;;;;13.69;100.00;100753.22;5267415;28;20063;-74
2023/08/31 00:26:45;;;;;;;5.15;3.50;;;;;;;13.69;100.00;100759.28;5265948;28;20103;-76
2023/08/31 00:29:16;;;;;;;3.60;3.17;;;;;;;13.64;100.00;100745.78;5263357;28;20512;-74
2023/08/31 00:31:49;;;;;;;4.20;3.38;;;;;;;13.59;100.00;100745.38;5264558;28;20443;-75
2023/08/31 00:34:20;;;;;;;4.10;3.20;;;;;;;13.63;100.00;100752.81;5265655;28;20032;-74
2023/08/31 00:36:52;;;;;;;6.93;4.30;;;;;;;13.61;100.00;100756.59;5264178;28;20028;-75
2023/08/31 00:39:23;;;;;;;5.40;4.05;;;;;;;13.59;100.00;100753.28;5249455;28;20568;-73
2023/08/31 00:41:54;;;;;;;5.53;3.65;;;;;;;13.53;100.00;100752.09;5265040;28;20393;-75
2023/08/31 00:44:26;;;;;;;5.97;3.83;;;;;;;13.37;100.00;100728.25;5263378;28;20035;-75
2023/08/31 00:46:58;;;;;;;4.57;3.88;;;;;;;13.47;100.00;100751.88;5265697;28;20027;-73
2023/08/31 00:49:29;;;;;;;4.70;3.88;;;;;;;13.38;100.00;100746.53;5264360;28;20409;-78
2023/08/31 00:52:00;;;;;;;6.30;3.88;;;;;;;13.43;100.00;100753.16;5262391;28;20024;-73
2023/08/31 00:54:32;;;;;;;4.32;3.90;;;;;;;13.46;100.00;100752.84;5262646;28;20049;-75
2023/08/31 00:57:03;;;;;;;5.75;4.05;;;;;;;13.42;100.00;100756.75;5265132;28;20107;-73
2023/08/31 00:59:36;;;;;;;4.05;3.65;;;;;;;13.39;100.00;100757.88;5265653;28;20025;-77
2023/08/31 01:02:16;;;;;;;8.93;4.10;;;;;;;13.41;100.00;100755.09;5269863;28;20040;-74
2023/08/31 01:05:26;;;;;;;4.85;4.15;;;;;;;13.63;100.00;100752.00;5267986;28;20119;-74
2023/08/31 01:08:23;;;;;;;5.25;3.92;;;;;;;13.61;100.00;100746.06;5267138;28;20207;-77
2023/08/31 01:11:09;;;;;;;4.07;3.67;;;;;;;13.27;100.00;100746.75;5266180;28;20024;-74
2023/08/31 01:13:44;;;;;;;6.05;3.80;;;;;;;13.24;100.00;100746.22;5265314;28;20029;-75
2023/08/31 01:16:16;;;;;;;6.75;3.92;;;;;;;13.22;100.00;100743.72;5264046;28;20029;-74
2023/08/31 01:18:48;;;;;;;4.57;3.78;;;;;;;13.20;100.00;100748.28;5263936;28;20020;-74
2023/08/31 01:21:28;;;;;;;4.22;3.78;;;;;;;13.33;100.00;100747.94;5267488;28;20047;-74
2023/08/31 01:23:59;;;;;;;5.22;3.78;;;;;;;13.18;100.00;100738.88;5269668;28;20040;-74
2023/08/31 01:26:32;;;;;;;5.43;4.13;;;;;;;13.08;100.00;100728.44;5267248;28;20054;-75
2023/08/31 01:29:03;;;;;;;4.32;3.75;;;;;;;13.13;100.00;100742.81;5266087;28;20029;-77
2023/08/31 01:31:42;;;;;;;4.47;3.90;;;;;;;13.24;100.00;100760.22;5266427;28;20037;-75
2023/08/31 01:34:14;;;;;;;4.30;3.53;;;;;;;13.10;100.00;100761.50;5268501;28;20563;-77
2023/08/31 01:36:52;;;;;;;4.63;3.80;;;;;;;13.14;100.00;100754.16;5267906;28;20029;-73
2023/08/31 01:39:40;;;;;;;4.22;3.83;;;;;;;13.32;100.00;100755.03;5265666;28;20611;-74
2023/08/31 01:42:15;;;;;;;5.28;4.10;;;;;;;13.17;100.00;100763.56;5269443;28;20020;-74
2023/08/31 01:44:48;;;;;;;5.15;4.30;;;;;;;13.09;100.00;100762.50;5251866;28;20046;-73
2023/08/31 01:47:19;;;;;;;5.68;4.55;;;;;;;13.08;100.00;100752.94;5267015;28;20388;-77
2023/08/31 01:49:51;;;;;;;6.07;4.55;;;;;;;13.07;100.00;100768.88;5267365;28;20031;-73
2023/08/31 01:52:23;;;;;;;5.38;4.53;;;;;;;13.08;100.00;100760.84;5268602;28;20028;-75
2023/08/31 01:54:54;;;;;;;6.32;5.15;;;;;;;13.13;100.00;100765.66;5266765;28;20163;-74
2023/08/31 01:57:25;;;;;;;5.82;5.15;;;;;;;13.07;100.00;100755.75;5251489;28;20033;-77
2023/08/31 01:59:56;;;;;;;5.13;4.63;;;;;;;13.17;100.00;100767.00;5266666;28;20029;-75
2023/08/31 02:02:28;;;;;;;5.65;5.03;;;;;;;13.13;100.00;100761.22;5268516;28;20441;-74
2023/08/31 02:05:01;;;;;;;6.13;5.38;;;;;;;13.18;100.00;100767.81;5264827;28;20489;-73
2023/08/31 02:07:33;;;;;;;6.05;4.97;;;;;;;13.16;100.00;100770.63;5267590;28;20480;-74
2023/08/31 02:10:06;;;;;;;6.32;5.35;;;;;;;13.17;100.00;100764.38;5265307;28;20074;-75
2023/08/31 02:12:37;;;;;;;6.93;5.22;;;;;;;13.27;100.00;100773.06;5265674;28;20025;-74
2023/08/31 02:15:09;;;;;;;5.75;5.20;;;;;;;13.30;100.00;100769.31;5267240;28;20055;-76
2023/08/31 02:17:41;;;;;;;6.85;5.53;;;;;;;13.29;100.00;100778.16;5268135;28;20366;-74
2023/08/31 02:20:13;;;;;;;6.20;5.60;;;;;;;13.34;100.00;100782.03;5266426;28;20045;-73
2023/08/31 02:22:45;;;;;;;6.47;5.72;;;;;;;13.33;100.00;100775.13;5264763;28;20114;-74
2023/08/31 02:25:16;;;;;;;5.68;5.18;;;;;;;13.36;100.00;100768.69;5269318;28;20032;-73
2023/08/31 02:27:47;;;;;;;6.35;5.60;;;;;;;13.42;100.00;100767.28;5264822;28;20024;-73
2023/08/31 02:30:19;;;;;;;6.45;5.68;;;;;;;13.13;100.00;100720.94;5266148;28;20119;-73
2023/08/31 02:32:50;;;;;;;7.40;5.55;;;;;;;13.39;100.00;100765.78;5265992;28;20024;-74
2023/08/31 02:35:22;;;;;;;7.63;5.65;;;;;;;13.35;100.00;100762.63;5267845;28;20040;-74
2023/08/31 02:37:53;;;;;;;6.75;5.70;;;;;;;13.26;100.00;100757.41;5265642;28;20021;-76
2023/08/31 02:40:25;;;;;;;8.57;6.00;;;;;;;13.33;100.00;100769.00;5265786;28;20063;-73
2023/08/31 02:42:56;;;;;;;6.95;5.63;;;;;;;13.30;100.00;100775.41;5265967;28;20395;-74
2023/08/31 02:45:27;;;;;;;8.32;6.97;;;;;;;13.17;100.00;100763.56;5250834;28;20029;-73
2023/08/31 02:47:59;;;;;;;9.30;7.65;;;;;;;13.24;100.00;100773.38;5264789;28;20070;-74
2023/08/31 02:50:30;;;;;;;10.93;9.82;;;;;;;13.15;100.00;100763.72;5263481;28;20059;-73
2023/08/31 02:53:02;;;;;;;14.15;11.13;;;;;;;13.15;100.00;100767.16;5266697;28;20115;-74
2023/08/31 02:55:33;;;;;;;14.15;11.73;;;;;;;13.14;100.00;100765.53;5267863;28;20461;-75
2023/08/31 02:58:04;;;;;;;14.60;12.75;;;;;;;12.97;100.00;100742.63;5264586;28;20024;-74
2023/08/31 03:00:39;;;;;;;15.07;13.48;;;;;;;13.17;100.00;100774.06;5265590;28;20574;-75
2023/08/31 03:03:10;;;;;;;14.38;12.90;;;;;;;13.11;100.00;100771.06;5266379;28;20024;-75
2023/08/31 03:05:42;;;;;;;15.48;13.68;;;;;;;13.04;100.00;100766.56;5266966;28;20682;-73
2023/08/31 03:08:13;;;;;;;15.00;13.25;;;;;;;13.03;100.00;100762.25;5267532;28;20030;-74
2023/08/31 03:10:45;;;;;;;13.88;12.43;;;;;;;13.02;100.00;100771.13;5248713;28;20059;-74
2023/08/31 03:13:16;;;;;;;12.90;11.50;;;;;;;13.02;100.00;100776.38;5264349;28;20025;-76
2023/08/31 03:15:47;;;;;;;13.82;12.43;;;;;;;12.99;100.00;100766.97;5268222;28;20033;-75
2023/08/31 03:18:18;;;;;;;12.90;11.63;;;;;;;13.01;100.00;100767.66;5267382;28;20175;-77
2023/08/31 03:20:50;;;;;;;12.70;10.73;;;;;;;13.01;100.00;100774.72;5264661;28;20525;-74
2023/08/31 03:23:21;;;;;;;10.75;9.75;;;;;;;13.02;100.00;100774.56;5267040;28;20028;-74
2023/08/31 03:25:53;;;;;;;11.00;9.90;;;;;;;13.00;100.00;100784.44;5265214;28;20033;-75
2023/08/31 03:28:24;;;;;;;9.98;8.98;;;;;;;12.99;100.00;100776.66;5262463;28;20519;-73
2023/08/31 03:30:56;;;;;;;10.60;9.40;;;;;;;12.94;100.00;100782.38;5262288;28;20052;-77
2023/08/31 03:33:28;;;;;;;10.80;9.70;;;;;;;12.90;100.00;100775.75;5262182;28;20066;-74
2023/08/31 03:36:04;;;;;;;14.33;11.47;;;;;;;13.02;100.00;100781.63;5264372;28;20477;-77
2023/08/31 03:38:38;;;;;;;13.60;12.27;;;;;;;12.87;100.00;100774.25;5266648;28;20421;-74
2023/08/31 03:41:09;;;;;;;13.95;12.68;;;;;;;12.86;100.00;100777.84;5263265;28;20390;-74
2023/08/31 03:43:40;;;;;;;14.70;13.23;;;;;;;12.82;100.00;100765.97;5265768;28;20044;-77
2023/08/31 03:46:12;;;;;;;15.90;14.43;;;;;;;12.91;100.00;100765.06;5263996;28;20028;-75
2023/08/31 03:48:43;;;;;;;17.20;15.45;;;;;;;12.90;100.00;100766.06;5265500;28;20334;-73
2023/08/31 03:51:14;;;;;;;17.15;15.35;;;;;;;12.96;100.00;100774.34;5263054;28;20032;-77
2023/08/31 03:53:46;;;;;;;17.83;15.93;;;;;;;12.88;100.00;100756.69;5265190;28;20740;-75
2023/08/31 03:56:17;;;;;;;17.65;15.85;;;;;;;12.89;100.00;100760.97;5263334;28;20107;-76
2023/08/31 03:58:49;;;;;;;17.45;15.50;;;;;;;12.89;100.00;100753.06;5263936;28;20024;-75
2023/08/31 04:01:20;;;;;;;17.58;15.70;;;;;;;12.88;100.00;100752.25;5262246;28;20037;-77
2023/08/31 04:03:51;;;;;;;17.85;15.90;;;;;;;12.88;100.00;100770.66;5265959;28;20021;-73
2023/08/31 04:06:23;;;;;;;16.90;15.07;;;;;;;12.88;100.00;100770.66;5263571;28;20137;-74
2023/08/31 04:08:54;;;;;;;16.40;14.73;;;;;;;12.86;100.00;100772.59;5265410;28;20025;-76
2023/08/31 04:11:26;;;;;;;16.25;14.75;;;;;;;12.85;100.00;100776.19;5263277;28;20086;-73
2023/08/31 04:13:57;;;;;;;15.65;14.07;;;;;;;12.74;100.00;100763.25;5261744;28;20025;-73
2023/08/31 04:16:29;;;;;;;15.05;13.65;;;;;;;12.82;100.00;100776.50;5261759;28;20055;-75
2023/08/31 04:19:00;;;;;;;14.02;12.55;;;;;;;12.79;100.00;100776.78;5263852;28;20039;-74
2023/08/31 04:21:31;;;;;;;14.25;12.75;;;;;;;12.81;100.00;100784.53;5263465;28;20090;-74
2023/08/31 04:24:03;;;;;;;14.43;12.93;;;;;;;12.77;100.00;100780.53;5262745;28;20029;-73
2023/08/31 04:26:34;;;;;;;13.25;11.55;;;;;;;12.87;100.00;100791.81;5265685;28;20107;-75
2023/08/31 04:29:06;;;;;;;11.55;10.35;;;;;;;12.84;100.00;100795.59;5263068;28;20626;-73
2023/08/31 04:31:38;;;;;;;13.18;10.57;;;;;;;12.86;100.00;100788.38;5264285;28;20082;-76
2023/08/31 04:34:09;;;;;;;15.23;10.38;;;;;;;12.82;100.00;100791.44;5263253;28;20536;-73
2023/08/31 04:36:40;;;;;;;11.90;10.73;;;;;;;12.81;100.00;100784.53;5269858;28;20025;-73
2023/08/31 04:39:11;;;;;;;11.27;9.55;;;;;;;12.80;100.00;100791.56;5267356;28;20043;-75
2023/08/31 04:41:43;;;;;;;13.20;9.43;;;;;;;12.75;100.00;100793.00;5268332;28;20404;-76
2023/08/31 04:44:14;;;;;;;10.50;8.85;;;;;;;12.79;100.00;100796.97;5268270;28;20072;-73
2023/08/31 04:46:45;;;;;;;9.85;8.73;;;;;;;12.78;100.00;100808.47;5272697;28;20107;-73
2023/08/31 04:49:18;;;;;;;9.13;8.32;;;;;;;12.79;100.00;100813.59;5266456;28;20016;-74
2023/08/31 04:51:49;;;;;;;10.73;8.30;;;;;;;12.79;100.00;100796.97;5258210;28;20027;-74
2023/08/31 04:54:20;;;;;;;9.93;8.23;;;;;;;12.78;100.00;100806.69;5274605;28;20057;-76
2023/08/31 04:56:51;;;;;;;7.78;7.07;;;;;;;12.77;100.00;100806.84;5272285;28;20029;-74
2023/08/31 04:59:23;;;;;;;8.68;7.47;;;;;;;12.78;100.00;100817.19;5264187;28;20029;-74
2023/08/31 05:01:54;;;;;;;6.70;5.97;;;;;;;12.74;100.00;100810.56;5263142;28;20059;-74
2023/08/31 05:04:26;;;;;;;8.55;6.97;;;;;;;12.76;100.00;100813.03;5261418;28;20123;-73
2023/08/31 05:06:57;;;;;;;8.05;7.25;;;;;;;12.83;100.00;100822.81;5262621;28;20021;-74
2023/08/31 05:09:32;;;;;;;11.38;7.30;;;;;;;12.80;100.00;100819.66;5262772;28;20464;-74
2023/08/31 05:12:03;;;;;;;8.55;6.50;;;;;;;12.86;100.00;100822.53;5263358;28;20024;-75
2023/08/31 05:14:37;;;;;;;6.75;5.78;;;;;;;12.87;100.00;100824.19;5263752;28;20024;-74
2023/08/31 05:17:08;;;;;;;7.75;6.05;;;;;;;12.88;100.00;100830.31;5265108;28;20040;-74
2023/08/31 05:19:39;;;;;;;9.35;5.82;;;;;;;12.91;100.00;100833.44;5267106;28;20033;-74
2023/08/31 05:22:10;;;;;;;8.48;6.25;;;;;;;12.90;100.00;100839.69;5262661;28;20068;-75
2023/08/31 05:24:42;;;;;;;7.65;5.57;;;;;;;12.88;100.00;100835.56;5267352;28;20024;-74
2023/08/31 05:27:13;;;;;;;7.32;5.93;;;;;;;12.82;100.00;100839.59;5267797;28;20020;-77
2023/08/31 05:29:44;;;;;;;6.68;5.93;;;;;;;12.85;100.00;100847.19;5267455;28;20020;-74
2023/08/31 05:32:15;;;;;;;5.85;5.28;;;;;;;12.85;100.00;100846.38;5268906;28;20067;-75
2023/08/31 05:34:47;;;;;;;6.72;6.03;;;;;;;12.85;100.00;100847.19;5269107;28;20121;-74
2023/08/31 05:37:18;;;;;;;5.97;5.20;;;;;;;12.79;100.00;100845.13;5266966;28;20040;-74
2023/08/31 05:39:50;;;;;;;7.40;5.30;;;;;;;12.81;100.00;100848.47;5264236;28;20127;-78
2023/08/31 05:42:21;;;;;;;6.45;4.97;;;;;;;12.86;100.00;100862.00;5267384;28;20029;-74
2023/08/31 05:44:53;;;;;;;6.68;4.88;;;;;;;12.90;100.00;100863.34;5267771;28;20044;-74
2023/08/31 05:47:24;;;;;;;6.75;5.28;;;;;;;12.94;100.00;100869.16;5265239;28;20389;-74
2023/08/31 05:49:55;;;;;;;7.47;5.38;;;;;;;12.95;100.00;100865.53;5266760;28;20425;-76
2023/08/31 05:52:27;;;;;;;6.18;5.00;;;;;;;12.97;100.00;100865.41;5263889;28;20470;-74
2023/08/31 05:54:58;;;;;;;6.15;5.47;;;;;;;12.98;100.00;100859.16;5267428;28;20053;-74
2023/08/31 05:57:29;;;;;;;5.75;4.60;;;;;;;12.95;100.00;100855.03;5264510;28;20029;-74
2023/08/31 06:00:01;;;;;;;6.32;5.38;;;;;;;13.09;100.00;100861.63;5261190;28;20031;-73
2023/08/31 06:02:32;;;;;;;6.93;5.10;;;;;;;13.12;100.00;100867.41;5264613;28;20779;-73
2023/08/31 06:05:04;;;;;;;5.57;5.07;;;;;;;13.13;100.00;100863.78;5267538;28;20401;-75
2023/08/31 06:07:35;;;;;;;8.93;5.38;;;;;;;13.18;100.00;100873.88;5260676;28;20470;-73
2023/08/31 06:10:07;;;;;;;6.38;4.80;;;;;;;13.24;100.00;100865.44;5267126;28;20028;-73
2023/08/31 06:12:38;;;;;;;7.22;5.03;;;;;;;13.26;100.00;100871.41;5262844;28;20041;-74
2023/08/31 06:15:10;;;;;;;7.47;5.50;;;;;;;13.29;100.00;100867.63;5265658;28;20033;-76
2023/08/31 06:17:41;;;;;;;6.28;5.00;;;;;;;13.43;100.00;100875.03;5263560;28;20028;-73
2023/08/31 06:20:12;;;;;;;7.15;5.13;;;;;;;13.50;100.00;100881.34;5262115;28;20032;-76
2023/08/31 06:22:44;;;;;;;7.25;5.35;;;;;;;13.51;100.00;100877.75;5265331;28;20031;-74
2023/08/31 06:25:18;;;;;;;6.93;5.25;;;;;;;13.61;100.00;100877.69;5271845;28;20039;-77
2023/08/31 06:27:49;;;;;;;7.43;5.10;;;;;;;13.66;100.00;100893.03;5254098;28;20030;-77
2023/08/31 06:30:20;;;;;;;5.97;4.85;;;;;;;13.75;100.00;100884.22;5273202;28;20400;-73
2023/08/31 06:32:52;;;;;;;7.85;5.15;;;;;;;13.78;100.00;100882.13;5272401;28;20378;-74
2023/08/31 06:35:23;;;;;;;7.30;5.25;;;;;;;13.90;100.00;100897.72;5254864;28;20059;-74
2023/08/31 06:37:55;;;;;;;9.18;5.75;;;;;;;13.97;100.00;100893.50;5272301;28;20035;-77
2023/08/31 06:40:27;;;;;;;6.35;5.13;;;;;;;14.06;100.00;100898.69;5267985;28;20052;-73
2023/08/31 06:42:58;;;;;;;6.57;5.60;;;;;;;14.16;100.00;100890.69;5272120;28;20565;-73
2023/08/31 06:45:29;;;;;;;9.38;5.40;;;;;;;14.26;100.00;100893.25;5273860;28;20036;-77
2023/08/31 06:48:02;;;;;;;7.70;5.32;;;;;;;14.35;100.00;100901.06;5249862;28;20428;-74
2023/08/31 06:50:35;;;;;;;8.82;5.18;;;;;;;14.46;100.00;100905.25;5266277;28;20037;-77
2023/08/31 06:53:06;;;;;;;7.43;4.90;;;;;;;14.59;100.00;100913.63;5265277;28;20028;-74
2023/08/31 06:55:38;;;;;;;9.57;5.47;;;;;;;14.64;100.00;100899.97;5265684;28;20070;-74
2023/08/31 06:58:09;;;;;;;8.73;5.68;;;;;;;14.77;100.00;100910.09;5261992;28;20029;-76
2023/08/31 07:00:41;;;;;;;7.45;4.88;;;;;;;14.92;100.00;100915.63;5265410;28;20028;-76
2023/08/31 07:03:12;;;;;;;7.10;5.10;;;;;;;15.02;100.00;100921.63;5265310;28;20591;-74
2023/08/31 07:05:43;;;;;;;9.43;5.90;;;;;;;15.16;100.00;100918.41;5260982;28;20025;-77
2023/08/31 07:08:15;;;;;;;7.75;5.40;;;;;;;15.29;100.00;100921.41;5260883;28;21429;-74
2023/08/31 07:10:47;;;;;;;6.68;5.50;;;;;;;15.39;100.00;100918.66;5267246;28;20050;-78
2023/08/31 07:13:18;;;;;;;9.07;5.22;;;;;;;15.45;100.00;100917.19;5262886;28;20028;-74
2023/08/31 07:15:50;;;;;;;8.82;5.88;;;;;;;15.57;100.00;100926.50;5251711;28;20529;-76
2023/08/31 07:18:21;;;;;;;7.38;4.97;;;;;;;15.60;100.00;100926.13;5262327;28;20214;-73
2023/08/31 07:20:52;;;;;;;7.30;5.15;;;;;;;15.78;100.00;100920.78;5266869;28;20029;-75
2023/08/31 07:23:23;;;;;;;7.85;5.45;;;;;;;15.81;100.00;100912.53;5266595;28;20087;-74
2023/08/31 07:25:59;;;;;;;9.15;5.18;;;;;;;15.96;100.00;100925.94;5264004;28;20120;-74
2023/08/31 07:28:31;;;;;;;7.57;5.05;;;;;;;16.08;100.00;100924.63;5265640;28;20040;-77
2023/08/31 07:31:04;;;;;;;7.00;5.63;;;;;;;16.20;100.00;100928.59;5271584;28;20188;-76
2023/08/31 07:33:35;;;;;;;8.65;5.72;;;;;;;16.35;100.00;100930.56;5271098;28;20037;-74
2023/08/31 07:36:07;;;;;;;8.27;5.80;;;;;;;16.11;100.00;100892.59;5252765;28;20024;-74
2023/08/31 07:38:38;;;;;;;7.22;5.50;;;;;;;16.51;100.00;100931.38;5271962;28;20020;-77
2023/08/31 07:41:10;;;;;;;10.82;5.85;;;;;;;16.51;100.00;100923.44;5272071;28;20138;-74
2023/08/31 07:43:41;;;;;;;8.10;5.30;;;;;;;16.62;100.00;100927.56;5270945;28;20036;-77
2023/08/31 07:46:12;;;;;;;7.00;5.07;;;;;;;16.81;100.00;100942.28;5273656;28;20488;-74
2023/08/31 07:48:43;;;;;;;7.78;4.85;;;;;;;16.86;100.00;100932.03;5258980;28;20374;-75
2023/08/31 07:51:15;;;;;;;11.35;5.43;;;;;;;17.01;100.00;100935.66;5268886;28;20418;-76
2023/08/31 07:53:46;;;;;;;7.05;4.70;;;;;;;17.08;100.00;100930.47;5260884;28;20440;-75
2023/08/31 07:56:17;;;;;;;8.75;5.32;;;;;;;17.21;100.00;100928.13;5264499;28;20390;-79
2023/08/31 07:58:49;;;;;;;6.32;5.05;;;;;;;17.29;100.00;100929.09;5260230;28;20324;-75
2023/08/31 08:01:20;;;;;;;7.70;4.30;;;;;;;17.38;100.00;100926.22;5270845;28;20473;-75
2023/08/31 08:03:52;;;;;;;6.80;4.40;;;;;;;17.52;100.00;100940.56;5268014;28;20112;-76
2023/08/31 08:06:23;;;;;;;6.72;4.90;;;;;;;17.59;100.00;100938.88;5253149;28;20025;-74
2023/08/31 08:08:54;;;;;;;6.88;5.00;;;;;;;17.77;100.00;100946.59;5268119;28;20648;-75
2023/08/31 08:11:25;;;;;;;7.28;4.60;;;;;;;17.89;100.00;100942.56;5266913;28;20105;-74
2023/08/31 08:13:57;;;;;;;8.43;4.72;;;;;;;17.97;100.00;100944.31;5265440;28;20260;-76
2023/08/31 08:16:29;;;;;;;8.43;4.88;;;;;;;18.01;100.00;100937.66;5262902;28;20029;-75
2023/08/31 08:19:00;;;;;;;6.50;4.72;;;;;;;18.05;100.00;100938.97;5266978;28;20037;-77
2023/08/31 08:21:31;;;;;;;6.57;4.53;;;;;;;18.23;100.00;100950.09;5269209;28;20379;-74
2023/08/31 08:24:03;;;;;;;7.72;4.63;;;;;;;18.34;100.00;100943.56;5267869;28;20405;-75
2023/08/31 08:26:34;;;;;;;9.43;4.68;;;;;;;18.51;100.00;100954.84;5265958;28;20016;-76
2023/08/31 08:29:05;;;;;;;6.93;5.15;;;;;;;18.66;100.00;100953.03;5261699;28;20222;-75
2023/08/31 08:31:36;;;;;;;6.97;5.07;;;;;;;18.66;100.00;100952.22;5264452;28;20024;-75
2023/08/31 08:34:08;;;;;;;9.85;4.65;;;;;;;18.76;100.00;100959.97;5268601;28;20024;-75
2023/08/31 08:36:39;;;;;;;9.18;5.10;;;;;;;18.85;100.00;100956.22;5273150;28;20029;-75
2023/08/31 08:39:10;;;;;;;6.72;4.32;;;;;;;18.90;100.00;100952.03;5265262;28;20024;-75
2023/08/31 08:41:44;;;;;;;7.32;4.55;;;;;;;19.06;100.00;100969.59;5267574;28;20056;-78
2023/08/31 08:44:17;;;;;;;5.72;4.15;;;;;;;19.11;100.00;100971.69;5264385;28;20033;-76
2023/08/31 08:46:49;;;;;;;6.53;4.60;;;;;;;19.17;100.00;100973.63;5271275;28;20603;-74
2023/08/31 08:49:23;;;;;;;7.20;4.95;;;;;;;19.33;100.00;100973.44;5265750;28;20028;-78
2023/08/31 08:51:54;;;;;;;;;;;;;;;20.08;100.00;100971.50;5270056;28;20494;-75
2023/08/31 08:54:27;;;;;;;7.77;4.20;;;;;;;19.53;100.00;100964.91;5270415;28;19927;-75
2023/08/31 08:56:58;;;;;;;6.05;3.90;;;;;;;19.60;100.00;100979.09;5266002;28;20024;-75
2023/08/31 08:59:32;;;;;;;7.28;3.72;;;;;;;19.71;100.00;100973.31;5262412;28;20105;-75
2023/08/31 09:02:03;;;;;;;4.88;4.00;;;;;;;19.67;100.00;100977.38;5251744;28;20529;-78
2023/08/31 09:04:34;;;;;;;5.55;3.50;;;;;;;19.66;100.00;100981.88;5243169;28;20029;-78
2023/08/31 09:07:06;;;;;;;6.35;3.75;;;;;;;19.71;100.00;100973.31;5266918;28;20020;-79
2023/08/31 09:09:50;;;;;;;8.00;3.53;;;;;;;20.01;100.00;100982.06;5269436;28;20036;-78
2023/08/31 09:12:23;;;;;;;7.40;4.40;;;;;;;19.72;100.00;100980.28;5271646;28;20105;-75
2023/08/31 09:15:02;;;;;;;10.23;3.85;;;;;;;19.87;100.00;100982.91;5268674;28;20103;-75
2023/08/31 09:17:44;;;;;;;5.97;3.75;;;;;;;19.87;100.00;100974.94;5268629;28;20163;-75
2023/08/31 09:20:15;;;;;;;6.60;3.08;;;;;;;19.98;100.00;100984.25;5269124;28;20021;-78
2023/08/31 09:22:48;;;;;;;7.40;3.75;;;;;;;20.14;100.00;100984.81;5271855;28;20032;-75
2023/08/31 09:25:20;;;;;;;;;;;;;;;20.90;100.00;100993.06;5269082;28;20065;-75
2023/08/31 09:27:51;;;;;;;8.75;3.10;;;;;;;20.33;100.00;100988.69;5273008;28;19913;-75
2023/08/31 09:30:22;;;;;;;6.82;3.38;;;;;;;20.41;100.00;100993.06;5273546;28;20268;-76
2023/08/31 09:32:54;;;;;;;5.77;3.27;;;;;;;20.51;100.00;100984.81;5273898;28;20028;-74
2023/08/31 09:35:25;;;;;;;6.53;3.40;;;;;;;20.66;100.00;100985.53;5271477;28;20056;-78
2023/08/31 09:37:57;;;;;;;7.53;3.85;;;;;;;20.45;100.00;100978.34;5272025;28;20101;-75
2023/08/31 09:40:28;;;;;;;7.70;3.60;;;;;;;20.60;100.00;100997.75;5270628;28;20118;-77
2023/08/31 09:42:59;;;;;;;6.43;3.70;;;;;;;20.70;100.00;100989.47;5269328;28;20057;-76
2023/08/31 09:45:33;;;;;;;6.63;3.60;;;;;;;20.78;100.00;100991.97;5266870;28;20033;-75
2023/08/31 09:48:05;;;;;;;6.45;3.03;;;;;;;20.69;100.00;100947.06;5262849;28;20350;-75
2023/08/31 09:50:37;;;;;;;6.03;2.90;;;;;;;21.11;100.00;100997.53;5268295;28;20066;-75
2023/08/31 09:53:10;;;;;;;6.72;3.13;;;;;;;21.08;100.00;100995.25;5268599;28;20033;-79
2023/08/31 09:55:42;;;;;;;;;;;;;;;21.85;100.00;101001.38;5270969;28;20417;-79
2023/08/31 09:58:20;;;;;;;4.93;3.25;;;;;;;20.91;100.00;100999.25;5272663;28;19921;-77
2023/08/31 10:00:52;;;;;;;6.53;3.28;;;;;;;20.89;100.00;100987.97;5272517;28;20039;-77
2023/08/31 10:03:26;;;;;;;5.70;3.00;;;;;;;21.32;100.00;100990.47;5275004;28;20032;-75
2023/08/31 10:05:58;;;;;;;6.53;3.50;;;;;;;21.26;100.00;101005.41;5272969;28;20021;-75
2023/08/31 10:08:31;;;;;;;6.25;2.78;;;;;;;21.26;100.00;100994.75;5273861;28;20115;-78
2023/08/31 10:11:04;;;;;;;8.57;3.22;;;;;;;21.53;100.00;101001.06;5270259;28;20704;-75
2023/08/31 10:13:39;;;;;;;6.75;2.65;;;;;;;21.71;100.00;100994.38;5269309;28;20020;-78
2023/08/31 10:16:11;;;;;;;5.10;2.13;;;;;;;21.82;100.00;100986.63;5267109;28;20320;-77
2023/08/31 10:18:42;;;;;;;5.40;3.00;;;;;;;21.70;100.00;100987.38;5270644;28;20021;-75
2023/08/31 10:21:17;;;;;;;5.70;2.43;;;;;;;21.60;100.00;100998.44;5272459;28;20024;-76
2023/08/31 10:23:49;;;;;;;4.78;2.20;;;;;;;21.33;100.00;100992.16;5269032;28;20025;-75
2023/08/31 10:26:31;;;;;;;6.10;2.40;;;;;;;21.35;100.00;100990.91;5269094;28;20020;-75
2023/08/31 10:29:04;;;;;;;5.13;2.17;;;;;;;20.94;100.00;100998.03;5265144;28;20039;-76
2023/08/31 10:31:37;;;;;;;5.47;2.80;;;;;;;21.05;100.00;100992.97;5263969;28;20016;-78
2023/08/31 10:34:13;;;;;;;5.93;2.40;;;;;;;21.06;100.00;100976.00;5262191;28;20065;-75
2023/08/31 10:36:45;;;;;;;4.07;2.42;;;;;;;21.26;100.00;100985.94;5263823;28;20055;-75
2023/08/31 10:39:21;;;;;;;4.13;2.13;;;;;;;21.41;100.00;100986.66;5258513;28;20024;-76
2023/08/31 10:41:56;;;;;;;4.60;2.13;;;;;;;21.60;100.00;100983.25;5267819;28;20512;-75
2023/08/31 10:44:30;;;;;;;5.20;2.50;;;;;;;21.91;100.00;100971.25;5268447;28;20029;-78
2023/08/31 10:47:05;;;;;;;6.57;2.17;;;;;;;21.99;100.00;100971.06;5269474;28;20104;-77
2023/08/31 10:49:37;;;;;;;6.25;2.45;;;;;;;21.61;95.81;100976.06;5263658;28;20055;-75
2023/08/31 10:52:19;;;;;;;6.73;2.20;;;;;;;21.84;97.64;100970.41;5269192;28;20028;-77
2023/08/31 10:54:55;;;;;;;5.90;1.90;;;;;;;21.86;98.47;100961.19;5265281;28;20044;-79
2023/08/31 10:57:30;;;;;;;4.97;1.80;;;;;;;22.00;97.90;100967.34;5267250;28;20103;-76
2023/08/31 11:00:03;;;;;;;5.30;2.28;;;;;;;22.04;91.32;100965.91;5267538;28;20445;-76
2023/08/31 11:02:40;;;;;;;5.63;2.42;;;;;;;22.36;95.70;100960.88;5261610;28;20031;-80
2023/08/31 11:05:17;;;;;;;4.85;2.10;;;;;;;22.25;93.78;100961.47;5253206;28;20089;-75
2023/08/31 11:07:50;;;;;;;3.30;1.88;;;;;;;21.98;88.40;100961.41;5268260;28;20025;-79
2023/08/31 11:10:23;;;;;;;4.63;1.77;;;;;;;21.88;93.19;100968.97;5262287;28;20374;-76
2023/08/31 11:12:57;;;;;;;3.25;1.88;;;;;;;21.62;91.37;100970.53;5268494;28;20575;-75
2023/08/31 11:15:30;;;;;;;5.90;1.90;;;;;;;21.58;97.45;100968.47;5268956;28;20398;-75
2023/08/31 11:18:01;;;;;;;5.10;2.17;;;;;;;21.42;92.77;100969.63;5269709;28;20028;-78
2023/08/31 11:20:32;;;;;;;4.27;1.70;;;;;;;21.65;96.05;100964.00;5267098;28;20028;-75
2023/08/31 11:23:04;;;;;;;4.40;2.07;;;;;;;21.81;96.21;100960.94;5270376;28;20035;-75
2023/08/31 11:25:35;;;;;;;3.37;1.70;;;;;;;22.06;95.44;100958.56;5269083;28;20056;-75
2023/08/31 11:28:07;;;;;;;5.03;2.23;;;;;;;22.39;98.04;100956.97;5266389;28;20656;-75
2023/08/31 11:30:40;;;;;;;4.25;2.08;;;;;;;22.66;98.69;100955.13;5268952;28;20017;-75
2023/08/31 11:33:12;;;;;;;4.03;1.73;;;;;;;22.62;93.14;100954.72;5269404;28;20104;-78
2023/08/31 11:35:44;;;;;;;;;;;;;;;23.48;95.52;100954.50;5263820;28;20041;-75
2023/08/31 11:38:16;;;;;;;4.28;1.77;;;;;;;22.77;88.92;100951.81;5269293;28;19912;-75
2023/08/31 11:40:48;;;;;;;5.97;2.80;;;;;;;22.76;88.36;100947.50;5268980;28;20162;-75